Accueil
METAR-TAF:

METAR-TAF

Aéroports :

Nevers, France

Aéroport de Nevers-Fourchambault

latitude: 47-00N, longitude: 003-06E, altitude: 180 m

Observation

Le bulletin a été fait il y a 8 heures et 36 minutes, à 18:00 UTC
Vent 8 kt de sud-ouest, variant entre sud/sud-ouest et ouest
Température 9°C
Humidité 87%
Pression 1005 hPa
Visibilité 10 km ou plus
pluie

METAR: LFQG 301800Z AUTO 23008KT 200V270 9999 RA FEW014/// BKN052/// OVC062/// ///CB 09/07 Q1005

Heure: 04:36 (02:36 UTC)


TAF: absent

Observations et prévisions météorologiques de plus de 4000 aéroports (messages METAR et TAF).

Les stations disponibles sont représentées par des disques jaunes et rouges sur la carte.

Passer la souris dessus pour voir le nom de la station.

Cliquer dessus pour voir les observations et prévisions météorologiques.

Pour changer de carte: cliquez sur les boutons verts avec une croix noire pour zoomer, sur le bouton vert avec un tiret pour effectuer un zoom arrière, ou sur les flèches vertes pour les cartes adjacentes.


METAR-TAF: